createdAt,value
2022-10-08T00:01:30.387Z,22.30
2022-10-08T00:03:58.533Z,22.80
2022-10-08T00:06:31.562Z,21.40
2022-10-08T00:09:05.637Z,22.40
2022-10-08T00:11:37.837Z,22.00
2022-10-08T00:14:07.431Z,22.60
2022-10-08T00:16:41.224Z,20.80
2022-10-08T00:19:15.262Z,22.70
2022-10-08T00:21:45.649Z,22.00
2022-10-08T00:24:18.735Z,22.10
2022-10-08T00:26:46.593Z,22.30
2022-10-08T00:29:17.754Z,21.60
2022-10-08T00:31:48.875Z,21.60
2022-10-08T00:34:23.389Z,23.30
2022-10-08T00:36:53.960Z,22.20
2022-10-08T00:39:25.067Z,21.50
2022-10-08T00:41:55.710Z,22.40
2022-10-08T00:44:51.546Z,22.50
2022-10-08T00:47:35.387Z,23.80
2022-10-08T00:50:10.948Z,24.10
2022-10-08T00:52:50.505Z,22.80
2022-10-08T00:55:22.086Z,22.50
2022-10-08T00:57:51.205Z,24.00
2022-10-08T01:00:23.334Z,23.90
2022-10-08T01:02:53.125Z,23.20
2022-10-08T01:06:08.563Z,23.00
2022-10-08T01:09:19.085Z,22.70
2022-10-08T01:12:03.592Z,25.00
2022-10-08T01:14:55.061Z,23.80
2022-10-08T01:18:10.568Z,23.50
2022-10-08T01:20:54.050Z,22.70
2022-10-08T01:23:57.758Z,24.80
2022-10-08T01:27:11.982Z,24.20
2022-10-08T01:29:46.039Z,25.20
2022-10-08T01:32:21.206Z,22.30
2022-10-08T01:34:58.131Z,24.30
2022-10-08T01:37:31.912Z,25.90
2022-10-08T01:40:04.832Z,25.50
2022-10-08T01:45:09.969Z,23.50
2022-10-08T01:47:42.436Z,24.90
2022-10-08T01:50:22.911Z,24.70
2022-10-08T01:52:57.816Z,27.30
2022-10-08T01:55:37.201Z,26.60
2022-10-08T01:58:25.929Z,25.40
2022-10-08T02:00:55.885Z,24.00
2022-10-08T02:03:23.659Z,24.90
2022-10-08T02:05:55.553Z,23.80
2022-10-08T02:08:24.444Z,25.00
2022-10-08T02:10:52.918Z,24.00
2022-10-08T02:13:21.034Z,24.10
2022-10-08T02:16:06.846Z,24.90
2022-10-08T02:18:46.788Z,25.50
2022-10-08T02:21:26.832Z,25.60
2022-10-08T02:24:13.215Z,24.30
2022-10-08T02:26:49.199Z,27.70
2022-10-08T02:29:28.102Z,27.20
2022-10-08T02:32:19.087Z,27.60
2022-10-08T02:35:07.329Z,28.00
2022-10-08T02:37:51.128Z,28.60
2022-10-08T02:40:20.633Z,29.40
2022-10-08T02:42:57.808Z,30.10
2022-10-08T02:45:33.323Z,29.90
2022-10-08T02:48:12.041Z,29.40
2022-10-08T02:50:44.425Z,29.70
2022-10-08T02:53:18.226Z,30.50
2022-10-08T02:56:32.738Z,31.10
2022-10-08T02:59:00.893Z,28.40
2022-10-08T03:01:50.808Z,29.10
2022-10-08T03:04:38.922Z,30.70
2022-10-08T03:07:07.362Z,31.10
2022-10-08T03:09:41.010Z,30.60
2022-10-08T03:12:08.821Z,30.00
2022-10-08T03:14:43.405Z,32.00
2022-10-08T03:17:17.130Z,29.60
2022-10-08T03:19:45.281Z,27.20
2022-10-08T03:22:13.015Z,30.30
2022-10-08T03:24:40.719Z,36.20
2022-10-08T03:27:08.402Z,30.90
2022-10-08T03:29:36.037Z,29.50
2022-10-08T03:32:03.879Z,31.20
2022-10-08T03:34:31.510Z,28.40
2022-10-08T03:36:59.158Z,30.50
2022-10-08T03:39:26.871Z,29.70
2022-10-08T03:41:54.546Z,28.40
2022-10-08T03:44:22.470Z,28.30
2022-10-08T03:46:50.163Z,30.40
2022-10-08T03:49:17.801Z,28.20
2022-10-08T03:51:45.514Z,28.90
2022-10-08T03:54:13.198Z,29.00
2022-10-08T03:56:40.855Z,30.10
2022-10-08T03:59:08.514Z,29.00
2022-10-08T04:01:36.348Z,28.00
2022-10-08T04:04:04.462Z,29.80
2022-10-08T04:06:32.321Z,29.20
2022-10-08T04:09:03.070Z,27.10
2022-10-08T04:11:31.039Z,29.10
2022-10-08T04:14:00.288Z,28.60
2022-10-08T04:16:28.024Z,28.80
2022-10-08T04:18:55.715Z,30.70
2022-10-08T04:21:23.453Z,28.90
2022-10-08T04:23:51.310Z,28.80
2022-10-08T04:26:18.972Z,28.90
2022-10-08T04:28:48.119Z,28.70
2022-10-08T04:31:21.463Z,29.60
2022-10-08T04:33:51.262Z,29.80
2022-10-08T04:36:23.184Z,28.50
2022-10-08T04:38:52.250Z,29.30
2022-10-08T04:41:26.551Z,28.90
2022-10-08T04:44:00.103Z,28.20
2022-10-08T04:46:28.407Z,29.00
2022-10-08T04:48:57.544Z,29.50
2022-10-08T04:51:26.598Z,27.70
2022-10-08T04:53:56.073Z,30.50
2022-10-08T04:56:30.035Z,27.30
2022-10-08T04:59:01.941Z,29.20
2022-10-08T05:01:30.596Z,29.80
2022-10-08T05:03:59.707Z,28.60
2022-10-08T05:06:30.353Z,29.30
2022-10-08T05:09:02.946Z,31.40
2022-10-08T05:11:32.756Z,27.50
2022-10-08T05:14:01.338Z,29.50
2022-10-08T05:16:29.110Z,28.00
2022-10-08T05:18:57.120Z,28.40
2022-10-08T05:21:28.849Z,26.50
2022-10-08T05:24:06.753Z,26.80
2022-10-08T05:26:57.622Z,26.50
2022-10-08T05:29:28.714Z,25.90
2022-10-08T05:31:57.254Z,26.20
2022-10-08T05:34:25.292Z,26.10
2022-10-08T05:36:52.974Z,25.80
2022-10-08T05:39:20.700Z,26.70
2022-10-08T05:41:48.357Z,26.40
2022-10-08T05:44:16.075Z,23.90
2022-10-08T05:46:43.867Z,25.10
2022-10-08T05:49:20.297Z,23.60
2022-10-08T05:51:49.015Z,24.00
2022-10-08T05:54:18.388Z,24.10
2022-10-08T05:56:46.339Z,24.50
2022-10-08T05:59:25.058Z,24.50
2022-10-08T06:01:53.041Z,22.80
2022-10-08T06:04:21.178Z,22.90
2022-10-08T06:06:49.031Z,23.80
2022-10-08T06:09:20.248Z,24.00
2022-10-08T06:11:49.117Z,23.60
2022-10-08T06:14:19.117Z,24.40
2022-10-08T06:16:46.993Z,23.70
2022-10-08T06:19:14.824Z,22.10
2022-10-08T06:21:42.524Z,23.30
2022-10-08T06:24:12.234Z,22.70
2022-10-08T06:26:42.414Z,23.90
2022-10-08T06:29:18.692Z,22.30
2022-10-08T06:31:47.397Z,23.20
2022-10-08T06:34:15.805Z,23.50
2022-10-08T06:36:43.679Z,22.70
2022-10-08T06:39:15.707Z,21.60
2022-10-08T06:41:43.852Z,22.80
2022-10-08T06:44:14.634Z,21.30
2022-10-08T06:46:42.896Z,22.20
2022-10-08T06:49:12.296Z,22.40
2022-10-08T06:51:40.247Z,22.20
2022-10-08T06:54:08.758Z,21.80
2022-10-08T06:56:38.655Z,22.20
2022-10-08T06:59:08.320Z,22.90
2022-10-08T07:01:36.670Z,21.80
2022-10-08T07:04:06.692Z,20.50
2022-10-08T07:06:34.478Z,19.90
2022-10-08T07:09:04.731Z,23.60
2022-10-08T07:11:33.488Z,22.00
2022-10-08T07:14:01.342Z,19.20
2022-10-08T07:16:29.542Z,17.70
2022-10-08T07:18:58.655Z,17.60
2022-10-08T07:21:28.881Z,16.60
2022-10-08T07:23:59.308Z,17.60
2022-10-08T07:26:32.669Z,16.60
2022-10-08T07:29:08.554Z,16.50
2022-10-08T07:31:37.962Z,16.40
2022-10-08T07:34:10.908Z,25.20
2022-10-08T07:36:39.873Z,46.30
2022-10-08T07:39:13.659Z,15.10
2022-10-08T07:41:41.871Z,27.50
2022-10-08T07:44:12.114Z,14.50
2022-10-08T07:46:46.940Z,15.60
2022-10-08T07:49:17.828Z,14.20
2022-10-08T07:51:46.535Z,13.40
2022-10-08T07:54:17.935Z,13.90
2022-10-08T07:56:45.874Z,13.10
2022-10-08T07:59:15.821Z,13.10
2022-10-08T08:01:44.531Z,12.50
2022-10-08T08:04:12.851Z,12.90
2022-10-08T08:06:49.505Z,11.30
2022-10-08T08:09:18.238Z,12.10
2022-10-08T08:11:48.715Z,12.60
2022-10-08T08:14:16.790Z,14.70
2022-10-08T08:16:44.583Z,32.30
2022-10-08T08:19:12.461Z,12.00
2022-10-08T08:21:40.156Z,11.90
2022-10-08T08:24:13.573Z,13.10
2022-10-08T08:26:43.180Z,12.00
2022-10-08T08:29:15.562Z,11.80
2022-10-08T08:31:49.037Z,11.70
2022-10-08T08:34:21.137Z,10.80
2022-10-08T08:36:51.261Z,12.70
2022-10-08T08:39:25.310Z,11.80
2022-10-08T08:42:27.935Z,12.00
2022-10-08T08:45:34.281Z,10.80
2022-10-08T08:48:24.544Z,10.20
2022-10-08T08:50:58.836Z,9.80
2022-10-08T08:53:27.592Z,21.10
2022-10-08T08:56:00.085Z,12.60
2022-10-08T08:58:58.569Z,10.70
2022-10-08T09:01:46.498Z,10.50
2022-10-08T09:04:36.458Z,8.90
2022-10-08T09:07:11.542Z,10.50
2022-10-08T09:09:48.645Z,9.50
2022-10-08T09:12:24.734Z,9.90
2022-10-08T09:14:59.608Z,9.00
2022-10-08T09:17:40.899Z,9.90
2022-10-08T09:20:15.651Z,8.70
2022-10-08T09:22:45.608Z,9.00
2022-10-08T09:25:24.423Z,8.50
2022-10-08T09:28:01.261Z,9.00
2022-10-08T09:30:38.834Z,12.10
2022-10-08T09:33:12.930Z,9.10
2022-10-08T09:35:52.390Z,11.90
2022-10-08T09:38:31.223Z,9.40
2022-10-08T09:41:19.555Z,8.80
2022-10-08T09:44:08.093Z,10.10
2022-10-08T09:46:35.790Z,7.20
2022-10-08T09:49:34.599Z,8.00
2022-10-08T09:52:16.886Z,7.30
2022-10-08T09:54:51.095Z,7.30
2022-10-08T09:57:22.071Z,5.60
2022-10-08T10:00:02.008Z,7.90
2022-10-08T10:02:34.108Z,6.10
2022-10-08T10:05:22.826Z,6.10
2022-10-08T10:07:51.186Z,4.50
2022-10-08T10:10:30.423Z,4.30
2022-10-08T10:13:11.289Z,18.50
2022-10-08T10:15:46.769Z,7.20
2022-10-08T10:18:43.581Z,6.10
2022-10-08T10:21:17.703Z,5.50
2022-10-08T10:24:10.893Z,3.80
2022-10-08T10:29:22.692Z,4.60
2022-10-08T10:32:14.631Z,4.50
2022-10-08T10:34:51.145Z,4.30
2022-10-08T10:37:33.731Z,3.70
2022-10-08T10:40:29.612Z,4.70
2022-10-08T10:43:15.834Z,4.90
2022-10-08T10:45:53.697Z,4.00
2022-10-08T10:48:21.485Z,3.90
2022-10-08T10:51:10.596Z,3.60
2022-10-08T10:54:01.671Z,3.80
2022-10-08T10:56:38.610Z,4.80
2022-10-08T10:59:27.843Z,3.90
2022-10-08T11:02:16.062Z,3.40
2022-10-08T11:05:02.225Z,3.90
2022-10-08T11:08:05.922Z,3.80
2022-10-08T11:10:53.152Z,6.40
2022-10-08T11:13:51.582Z,9.70
2022-10-08T11:16:32.515Z,11.70
2022-10-08T11:19:05.137Z,23.30
2022-10-08T11:21:54.900Z,3.10
2022-10-08T11:24:53.012Z,3.10
2022-10-08T11:27:49.269Z,3.60
2022-10-08T11:30:22.620Z,3.00
2022-10-08T11:32:58.019Z,6.00
2022-10-08T11:35:53.714Z,4.80
2022-10-08T11:38:37.661Z,4.20
2022-10-08T11:41:20.973Z,3.20
2022-10-08T11:44:00.435Z,3.30
2022-10-08T11:46:34.409Z,3.60
2022-10-08T11:49:15.211Z,18.10
2022-10-08T11:51:50.387Z,14.60
2022-10-08T11:54:34.593Z,3.20
2022-10-08T11:58:06.261Z,3.90
2022-10-08T12:01:06.702Z,3.50
2022-10-08T12:03:41.755Z,3.20
2022-10-08T12:06:25.223Z,3.10
2022-10-08T12:09:02.634Z,3.80
2022-10-08T12:11:37.470Z,4.30
2022-10-08T12:14:11.355Z,3.70
2022-10-08T12:16:48.454Z,3.40
2022-10-08T12:19:34.847Z,3.70
2022-10-08T12:22:15.006Z,3.10
2022-10-08T12:24:50.311Z,3.10
2022-10-08T12:27:18.411Z,3.40
2022-10-08T12:30:12.187Z,2.90
2022-10-08T12:32:39.939Z,3.40
2022-10-08T12:35:47.367Z,2.30
2022-10-08T12:38:30.510Z,3.30
2022-10-08T12:41:10.647Z,2.40
2022-10-08T12:44:17.162Z,2.80
2022-10-08T12:46:53.960Z,2.30
2022-10-08T12:49:49.844Z,2.70
2022-10-08T12:52:21.745Z,2.90
2022-10-08T12:54:56.784Z,2.50
2022-10-08T12:57:34.863Z,3.00
2022-10-08T13:00:29.072Z,12.90
2022-10-08T13:03:07.296Z,3.10
2022-10-08T13:05:39.784Z,2.80
2022-10-08T13:08:28.498Z,3.60
2022-10-08T13:10:59.246Z,2.90
2022-10-08T13:13:40.506Z,2.70
2022-10-08T13:16:19.104Z,3.20
2022-10-08T13:18:57.389Z,4.60
2022-10-08T13:21:31.344Z,2.70
2022-10-08T13:24:20.978Z,3.10
2022-10-08T13:26:52.294Z,2.60
2022-10-08T13:29:38.419Z,14.40
2022-10-08T13:32:12.241Z,3.00
2022-10-08T13:34:42.813Z,3.20
2022-10-08T13:37:26.850Z,3.00
2022-10-08T13:40:13.420Z,3.00
2022-10-08T13:42:52.076Z,3.60
2022-10-08T13:45:30.232Z,3.30
2022-10-08T13:47:59.154Z,3.40
2022-10-08T13:50:26.882Z,3.30
2022-10-08T13:52:59.024Z,3.20
2022-10-08T13:55:32.638Z,25.80
2022-10-08T13:58:03.800Z,5.00
2022-10-08T14:00:35.447Z,3.40
2022-10-08T14:03:03.641Z,2.30
2022-10-08T14:05:35.370Z,3.60
2022-10-08T14:08:12.278Z,12.30
2022-10-08T14:10:42.077Z,2.90
2022-10-08T14:13:14.577Z,2.70
2022-10-08T14:15:42.983Z,2.90
2022-10-08T14:18:10.716Z,2.70
2022-10-08T14:20:39.154Z,2.70
2022-10-08T14:23:06.984Z,2.70
2022-10-08T14:25:34.684Z,2.60
2022-10-08T14:28:02.491Z,2.70
2022-10-08T14:30:30.575Z,2.70
2022-10-08T14:32:58.247Z,2.10
2022-10-08T14:35:25.927Z,2.10
2022-10-08T14:37:53.625Z,2.60
2022-10-08T14:40:22.822Z,2.50
2022-10-08T14:42:51.573Z,2.30
2022-10-08T14:45:19.764Z,2.90
2022-10-08T14:47:47.508Z,20.80
2022-10-08T14:50:15.443Z,13.10
2022-10-08T14:52:44.481Z,2.30
2022-10-08T14:55:13.365Z,2.50
2022-10-08T14:57:41.104Z,1.50
2022-10-08T15:00:09.550Z,2.40
2022-10-08T15:02:37.238Z,2.20
2022-10-08T15:05:06.318Z,2.20
2022-10-08T15:07:34.035Z,2.20
2022-10-08T15:10:01.689Z,2.00
2022-10-08T15:12:29.675Z,2.40
2022-10-08T15:14:57.390Z,1.80
2022-10-08T15:17:25.117Z,2.50
2022-10-08T15:19:53.094Z,1.80
2022-10-08T15:22:20.814Z,1.90
2022-10-08T15:24:48.482Z,1.70
2022-10-08T15:27:20.467Z,1.90
2022-10-08T15:29:48.604Z,2.80
2022-10-08T15:32:16.241Z,1.70
2022-10-08T15:34:43.906Z,1.80
2022-10-08T15:37:11.917Z,1.80
2022-10-08T15:39:39.634Z,6.20
2022-10-08T15:42:07.339Z,2.10
2022-10-08T15:44:35.059Z,2.00
2022-10-08T15:47:07.788Z,22.70
2022-10-08T15:49:41.889Z,2.20
2022-10-08T15:52:15.335Z,3.50
2022-10-08T15:54:43.971Z,1.60
2022-10-08T15:57:14.562Z,2.00
2022-10-08T15:59:42.774Z,1.90
2022-10-08T16:02:17.119Z,2.10
2022-10-08T16:04:47.584Z,2.40
2022-10-08T16:07:16.672Z,2.00
2022-10-08T16:09:44.617Z,2.10
2022-10-08T16:12:12.315Z,2.20
2022-10-08T16:14:40.045Z,3.10
2022-10-08T16:17:08.270Z,1.40
2022-10-08T16:19:36.086Z,2.30
2022-10-08T16:22:04.071Z,4.10
2022-10-08T16:24:31.810Z,3.50
2022-10-08T16:26:59.527Z,2.70
2022-10-08T16:29:27.346Z,3.10
2022-10-08T16:31:55.119Z,3.30
2022-10-08T16:34:24.826Z,3.00
2022-10-08T16:36:52.519Z,3.20
2022-10-08T16:39:24.177Z,3.70
2022-10-08T16:41:52.130Z,3.60
2022-10-08T16:44:21.069Z,11.40
2022-10-08T16:46:52.004Z,4.80
2022-10-08T16:49:25.735Z,5.50
2022-10-08T16:52:04.753Z,5.20
2022-10-08T16:54:32.834Z,4.80
2022-10-08T16:57:00.892Z,5.30
2022-10-08T16:59:30.055Z,5.20
2022-10-08T17:01:59.517Z,5.70
2022-10-08T17:04:29.653Z,5.30
2022-10-08T17:06:57.633Z,5.00
2022-10-08T17:09:25.499Z,4.80
2022-10-08T17:11:53.309Z,5.50
2022-10-08T17:14:21.010Z,5.80
2022-10-08T17:16:49.821Z,5.40
2022-10-08T17:19:18.247Z,24.50
2022-10-08T17:21:45.946Z,15.40
2022-10-08T17:24:13.657Z,6.20
2022-10-08T17:26:42.598Z,6.40
2022-10-08T17:29:12.552Z,6.20
2022-10-08T17:31:41.134Z,6.00
2022-10-08T17:34:09.958Z,7.70
2022-10-08T17:36:40.830Z,7.90
2022-10-08T17:39:13.627Z,7.80
2022-10-08T17:41:42.946Z,7.60
2022-10-08T17:44:11.969Z,7.80
2022-10-08T17:46:45.414Z,6.90
2022-10-08T17:49:19.507Z,6.20
2022-10-08T17:51:48.121Z,7.50
2022-10-08T17:54:19.657Z,7.20
2022-10-08T17:56:48.022Z,7.00
2022-10-08T17:59:19.047Z,7.50
2022-10-08T18:01:46.903Z,6.00
2022-10-08T18:04:18.538Z,6.40
2022-10-08T18:06:47.988Z,6.40
2022-10-08T18:09:20.780Z,6.00
2022-10-08T18:11:53.156Z,5.70
2022-10-08T18:14:22.463Z,6.10
2022-10-08T18:16:51.154Z,25.00
2022-10-08T18:19:19.072Z,7.20
2022-10-08T18:21:46.980Z,6.50
2022-10-08T18:24:17.133Z,7.40
2022-10-08T18:26:47.431Z,7.90
2022-10-08T18:29:15.799Z,7.60
2022-10-08T18:31:45.167Z,8.10
2022-10-08T18:34:16.796Z,8.10
2022-10-08T18:36:46.030Z,7.60
2022-10-08T18:39:17.808Z,8.70
2022-10-08T18:41:48.770Z,7.10
2022-10-08T18:44:21.594Z,7.90
2022-10-08T18:46:50.432Z,7.90
2022-10-08T18:49:28.940Z,8.00
2022-10-08T18:51:57.428Z,7.60
2022-10-08T18:54:25.223Z,8.00
2022-10-08T18:56:53.147Z,15.80
2022-10-08T18:59:20.882Z,10.70
2022-10-08T19:01:49.293Z,10.80
2022-10-08T19:04:20.987Z,9.90
2022-10-08T19:06:53.103Z,8.00
2022-10-08T19:09:21.576Z,7.10
2022-10-08T19:11:52.852Z,7.60
2022-10-08T19:14:23.479Z,7.20
2022-10-08T19:16:51.916Z,16.40
2022-10-08T19:19:27.388Z,39.30
2022-10-08T19:21:55.893Z,7.50
2022-10-08T19:24:26.167Z,8.00
2022-10-08T19:26:57.149Z,7.30
2022-10-08T19:29:29.148Z,7.20
2022-10-08T19:31:58.088Z,7.60
2022-10-08T19:34:27.153Z,8.40
2022-10-08T19:36:55.470Z,6.70
2022-10-08T19:39:27.124Z,8.50
2022-10-08T19:41:54.979Z,6.70
2022-10-08T19:44:22.776Z,6.20
2022-10-08T19:46:50.904Z,5.60
2022-10-08T19:49:19.566Z,5.80
2022-10-08T19:51:47.246Z,5.10
2022-10-08T19:54:16.223Z,6.60
2022-10-08T19:56:44.022Z,4.90
2022-10-08T19:59:12.257Z,4.30
2022-10-08T20:01:41.794Z,4.40
2022-10-08T20:04:10.623Z,4.30
2022-10-08T20:06:41.063Z,4.10
2022-10-08T20:09:12.747Z,4.20
2022-10-08T20:11:43.841Z,5.50
2022-10-08T20:14:14.036Z,4.60
2022-10-08T20:16:43.730Z,3.70
2022-10-08T20:19:20.831Z,5.30
2022-10-08T20:21:50.670Z,4.40
2022-10-08T20:24:18.889Z,3.50
2022-10-08T20:26:48.979Z,3.40
2022-10-08T20:29:20.872Z,2.50
2022-10-08T20:31:54.135Z,2.30
2022-10-08T20:34:31.070Z,10.80
2022-10-08T20:37:02.176Z,2.70
2022-10-08T20:39:30.022Z,2.60
2022-10-08T20:41:59.597Z,2.10
2022-10-08T20:44:27.393Z,3.10
2022-10-08T20:46:55.139Z,5.90
2022-10-08T20:49:23.105Z,25.70
2022-10-08T20:51:50.855Z,17.30
2022-10-08T20:54:18.630Z,19.60
2022-10-08T20:56:46.432Z,25.60
2022-10-08T20:59:17.613Z,5.40
2022-10-08T21:01:46.684Z,6.10
2022-10-08T21:04:14.653Z,6.00
2022-10-08T21:06:46.096Z,7.40
2022-10-08T21:09:15.872Z,7.10
2022-10-08T21:11:45.862Z,7.10
2022-10-08T21:14:21.322Z,8.20
2022-10-08T21:16:49.285Z,7.70
2022-10-08T21:19:21.851Z,8.60
2022-10-08T21:21:50.070Z,7.70
2022-10-08T21:24:18.398Z,7.30
2022-10-08T21:26:46.122Z,6.90
2022-10-08T21:29:15.181Z,7.10
2022-10-08T21:31:43.389Z,7.80
2022-10-08T21:34:12.768Z,7.60
2022-10-08T21:36:42.041Z,7.30
2022-10-08T21:39:15.791Z,6.50
2022-10-08T21:41:44.336Z,6.50
2022-10-08T21:44:13.215Z,6.60
2022-10-08T21:46:42.302Z,5.50
2022-10-08T21:49:22.466Z,5.60
2022-10-08T21:51:50.242Z,5.00
2022-10-08T21:54:18.248Z,4.20
2022-10-08T21:56:45.933Z,4.40
2022-10-08T21:59:15.630Z,4.20
2022-10-08T22:01:47.650Z,3.90
2022-10-08T22:04:24.689Z,3.90
2022-10-08T22:06:58.273Z,4.00
2022-10-08T22:09:30.601Z,5.50
2022-10-08T22:11:59.433Z,17.30
2022-10-08T22:14:28.571Z,5.00
2022-10-08T22:16:56.756Z,3.40
2022-10-08T22:19:24.742Z,3.70
2022-10-08T22:21:52.412Z,4.00
2022-10-08T22:24:20.155Z,3.20
2022-10-08T22:26:48.561Z,3.10
2022-10-08T22:29:16.988Z,2.90
2022-10-08T22:31:45.489Z,2.60
2022-10-08T22:34:13.429Z,2.60
2022-10-08T22:36:43.793Z,2.30
2022-10-08T22:39:12.288Z,2.20
2022-10-08T22:41:39.932Z,2.60
2022-10-08T22:44:07.683Z,2.50
2022-10-08T22:46:39.019Z,3.10
2022-10-08T22:49:09.868Z,2.30
2022-10-08T22:51:38.718Z,49.50
2022-10-08T22:54:07.110Z,14.90
2022-10-08T22:56:34.983Z,3.40
2022-10-08T22:59:02.688Z,3.40
2022-10-08T23:01:30.838Z,3.40
2022-10-08T23:03:58.513Z,2.70
2022-10-08T23:06:32.611Z,3.50
2022-10-08T23:09:11.195Z,2.60
2022-10-08T23:11:39.716Z,3.40
2022-10-08T23:14:07.343Z,2.80
2022-10-08T23:16:35.408Z,3.00
2022-10-08T23:19:08.826Z,3.50
2022-10-08T23:21:37.490Z,11.90
2022-10-08T23:24:06.043Z,4.40
2022-10-08T23:26:35.881Z,4.40
2022-10-08T23:29:04.630Z,3.60
2022-10-08T23:31:36.284Z,3.30
2022-10-08T23:34:05.561Z,3.20
2022-10-08T23:36:37.777Z,2.80
2022-10-08T23:39:07.655Z,10.30
2022-10-08T23:41:36.010Z,77.40
2022-10-08T23:44:04.326Z,4.00
2022-10-08T23:46:32.276Z,3.80
2022-10-08T23:49:00.250Z,3.50
2022-10-08T23:51:31.488Z,3.60
2022-10-08T23:54:01.191Z,3.30
2022-10-08T23:56:29.759Z,3.30
2022-10-08T23:58:58.269Z,3.30
